sensor_id;sensor_type;location;lat;lon;timestamp;pressure;altitude;pressure_sealevel;temperature;humidity
36932;BME280;22847;42.654;23.370;2023-11-21T00:12:00;94277.31;;;5.41;69.24
36932;BME280;22847;42.654;23.370;2023-11-21T00:14:29;94493.41;;;7.35;68.22
36932;BME280;22847;42.654;23.370;2023-11-21T00:19:30;94066.19;;;4.79;66.44
36932;BME280;22847;42.654;23.370;2023-11-21T00:21:59;94127.31;;;5.11;66.12
36932;BME280;22847;42.654;23.370;2023-11-21T00:26:59;94409.44;;;6.96;66.22
36932;BME280;22847;42.654;23.370;2023-11-21T00:29:25;94489.19;;;7.74;65.77
36932;BME280;22847;42.654;23.370;2023-11-21T00:31:51;94502.41;;;8.01;65.86
36932;BME280;22847;42.654;23.370;2023-11-21T00:34:16;94500.75;;;8.00;65.80
36932;BME280;22847;42.654;23.370;2023-11-21T00:36:42;94503.88;;;8.03;65.86
36932;BME280;22847;42.654;23.370;2023-11-21T00:39:07;94495.69;;;8.08;65.50
36932;BME280;22847;42.654;23.370;2023-11-21T00:41:33;94367.69;;;7.29;65.41
36932;BME280;22847;42.654;23.370;2023-11-21T00:43:58;94386.66;;;7.39;65.42
36932;BME280;22847;42.654;23.370;2023-11-21T00:46:25;94511.97;;;8.00;66.11
36932;BME280;22847;42.654;23.370;2023-11-21T00:48:52;94487.63;;;7.92;65.89
36932;BME280;22847;42.654;23.370;2023-11-21T00:51:19;94502.06;;;7.85;66.24
36932;BME280;22847;42.654;23.370;2023-11-21T00:53:44;94512.91;;;7.99;66.16
36932;BME280;22847;42.654;23.370;2023-11-21T00:56:10;94490.72;;;7.86;66.32
36932;BME280;22847;42.654;23.370;2023-11-21T00:58:35;94364.56;;;6.95;66.77
36932;BME280;22847;42.654;23.370;2023-11-21T01:01:01;94498.13;;;7.90;66.45
36932;BME280;22847;42.654;23.370;2023-11-21T01:03:27;94467.22;;;7.78;66.34
36932;BME280;22847;42.654;23.370;2023-11-21T01:05:53;94483.50;;;7.89;66.24
36932;BME280;22847;42.654;23.370;2023-11-21T01:08:19;94555.47;;;7.78;66.51
36932;BME280;22847;42.654;23.370;2023-11-21T01:10:45;94340.09;;;6.58;67.56
36932;BME280;22847;42.654;23.370;2023-11-21T01:13:10;94390.63;;;7.03;67.25
36932;BME280;22847;42.654;23.370;2023-11-21T01:15:36;94491.81;;;7.83;66.74
36932;BME280;22847;42.654;23.370;2023-11-21T01:18:01;94374.06;;;7.15;66.37
36932;BME280;22847;42.654;23.370;2023-11-21T01:20:28;94312.34;;;6.69;66.47
36932;BME280;22847;42.654;23.370;2023-11-21T01:22:54;94466.59;;;7.55;66.65
36932;BME280;22847;42.654;23.370;2023-11-21T01:25:20;94473.94;;;7.50;67.15
36932;BME280;22847;42.654;23.370;2023-11-21T01:27:46;94509.25;;;7.72;68.04
36932;BME280;22847;42.654;23.370;2023-11-21T01:30:13;94469.03;;;7.47;68.51
36932;BME280;22847;42.654;23.370;2023-11-21T01:32:39;94363.63;;;6.76;68.71
36932;BME280;22847;42.654;23.370;2023-11-21T01:35:05;94377.78;;;6.92;68.84
36932;BME280;22847;42.654;23.370;2023-11-21T01:37:32;94300.97;;;6.51;68.73
36932;BME280;22847;42.654;23.370;2023-11-21T01:39:58;94486.13;;;7.59;68.36
36932;BME280;22847;42.654;23.370;2023-11-21T01:42:27;94478.59;;;7.46;69.35
36932;BME280;22847;42.654;23.370;2023-11-21T01:44:54;94496.97;;;7.43;69.28
36932;BME280;22847;42.654;23.370;2023-11-21T01:47:20;94501.13;;;7.25;70.59
36932;BME280;22847;42.654;23.370;2023-11-21T01:49:46;94471.06;;;7.13;70.13
36932;BME280;22847;42.654;23.370;2023-11-21T01:52:12;94477.00;;;7.25;70.02
36932;BME280;22847;42.654;23.370;2023-11-21T01:54:38;94492.41;;;7.26;70.92
36932;BME280;22847;42.654;23.370;2023-11-21T01:57:05;94473.81;;;7.21;71.01
36932;BME280;22847;42.654;23.370;2023-11-21T01:59:37;94461.56;;;7.23;70.53
36932;BME280;22847;42.654;23.370;2023-11-21T02:02:06;94346.88;;;6.49;70.05
36932;BME280;22847;42.654;23.370;2023-11-21T02:04:35;94483.16;;;7.33;70.33
36932;BME280;22847;42.654;23.370;2023-11-21T02:07:04;94478.53;;;7.37;70.18
36932;BME280;22847;42.654;23.370;2023-11-21T02:09:30;94465.38;;;7.19;70.14
36932;BME280;22847;42.654;23.370;2023-11-21T02:11:57;94455.31;;;7.05;70.53
36932;BME280;22847;42.654;23.370;2023-11-21T02:14:24;94365.81;;;6.50;70.58
36932;BME280;22847;42.654;23.370;2023-11-21T02:16:52;94483.91;;;7.14;70.77
36932;BME280;22847;42.654;23.370;2023-11-21T02:19:19;94483.91;;;7.14;71.00
36932;BME280;22847;42.654;23.370;2023-11-21T02:21:52;94487.53;;;7.12;70.96
36932;BME280;22847;42.654;23.370;2023-11-21T02:24:26;94445.38;;;6.80;70.91
36932;BME280;22847;42.654;23.370;2023-11-21T02:27:05;94476.94;;;7.15;71.12
36932;BME280;22847;42.654;23.370;2023-11-21T02:29:33;94444.47;;;6.90;71.54
36932;BME280;22847;42.654;23.370;2023-11-21T02:31:58;94433.91;;;6.82;71.59
36932;BME280;22847;42.654;23.370;2023-11-21T02:34:25;94468.28;;;7.05;71.71
36932;BME280;22847;42.654;23.370;2023-11-21T02:36:50;94357.81;;;6.32;71.51
36932;BME280;22847;42.654;23.370;2023-11-21T02:39:16;94452.56;;;6.97;71.54
36932;BME280;22847;42.654;23.370;2023-11-21T02:41:43;94347.78;;;6.18;71.21
36932;BME280;22847;42.654;23.370;2023-11-21T02:44:09;94455.97;;;6.97;71.39
36932;BME280;22847;42.654;23.370;2023-11-21T02:46:36;94478.47;;;6.97;71.17
36932;BME280;22847;42.654;23.370;2023-11-21T02:49:02;94352.94;;;6.18;71.67
36932;BME280;22847;42.654;23.370;2023-11-21T02:51:29;94484.53;;;6.86;71.96
36932;BME280;22847;42.654;23.370;2023-11-21T02:53:55;94478.34;;;6.78;72.13
36932;BME280;22847;42.654;23.370;2023-11-21T02:56:26;94457.72;;;6.76;72.08
36932;BME280;22847;42.654;23.370;2023-11-21T02:58:54;94479.09;;;6.89;72.60
36932;BME280;22847;42.654;23.370;2023-11-21T03:01:20;94476.38;;;6.91;73.26
36932;BME280;22847;42.654;23.370;2023-11-21T03:03:45;94482.94;;;6.95;72.82
36932;BME280;22847;42.654;23.370;2023-11-21T03:06:13;94376.50;;;6.36;73.11
36932;BME280;22847;42.654;23.370;2023-11-21T03:08:38;94468.94;;;6.97;73.29
36932;BME280;22847;42.654;23.370;2023-11-21T03:11:04;94471.16;;;7.02;72.89
36932;BME280;22847;42.654;23.370;2023-11-21T03:13:29;94318.22;;;5.68;74.80
36932;BME280;22847;42.654;23.370;2023-11-21T03:15:55;94464.69;;;6.76;74.42
36932;BME280;22847;42.654;23.370;2023-11-21T03:18:21;94483.69;;;6.44;75.33
36932;BME280;22847;42.654;23.370;2023-11-21T03:20:49;94376.78;;;6.01;74.32
36932;BME280;22847;42.654;23.370;2023-11-21T03:23:15;94460.97;;;6.68;74.17
36932;BME280;22847;42.654;23.370;2023-11-21T03:25:40;94485.91;;;6.90;73.25
36932;BME280;22847;42.654;23.370;2023-11-21T03:28:05;94468.69;;;6.80;72.33
36932;BME280;22847;42.654;23.370;2023-11-21T03:30:32;94490.72;;;6.95;72.94
36932;BME280;22847;42.654;23.370;2023-11-21T03:32:57;94494.84;;;6.97;72.27
36932;BME280;22847;42.654;23.370;2023-11-21T03:35:23;94380.94;;;6.24;71.74
36932;BME280;22847;42.654;23.370;2023-11-21T03:37:49;94365.22;;;6.16;71.50
36932;BME280;22847;42.654;23.370;2023-11-21T03:40:15;94471.78;;;6.73;71.32
36932;BME280;22847;42.654;23.370;2023-11-21T03:42:40;94469.81;;;6.66;71.85
36932;BME280;22847;42.654;23.370;2023-11-21T03:45:07;94332.50;;;5.83;71.53
36932;BME280;22847;42.654;23.370;2023-11-21T03:47:34;94377.97;;;6.08;71.53
36932;BME280;22847;42.654;23.370;2023-11-21T03:50:00;94448.88;;;6.58;71.70
36932;BME280;22847;42.654;23.370;2023-11-21T03:52:26;94458.69;;;6.34;73.28
36932;BME280;22847;42.654;23.370;2023-11-21T03:54:53;94470.72;;;6.44;74.35
36932;BME280;22847;42.654;23.370;2023-11-21T03:57:20;94462.47;;;6.50;74.50
36932;BME280;22847;42.654;23.370;2023-11-21T03:59:46;94460.84;;;5.63;77.69
36932;BME280;22847;42.654;23.370;2023-11-21T04:02:12;94474.78;;;6.05;77.04
36932;BME280;22847;42.654;23.370;2023-11-21T04:04:37;94317.97;;;5.39;75.76
36932;BME280;22847;42.654;23.370;2023-11-21T04:07:03;94458.22;;;6.49;74.76
36932;BME280;22847;42.654;23.370;2023-11-21T04:09:28;94476.13;;;5.55;77.86
36932;BME280;22847;42.654;23.370;2023-11-21T04:11:53;94459.72;;;5.99;77.07
36932;BME280;22847;42.654;23.370;2023-11-21T04:14:20;94435.94;;;6.05;76.50
36932;BME280;22847;42.654;23.370;2023-11-21T04:16:46;94455.25;;;6.33;75.95
36932;BME280;22847;42.654;23.370;2023-11-21T04:19:11;94314.06;;;5.13;76.32
36932;BME280;22847;42.654;23.370;2023-11-21T04:21:40;94386.50;;;5.22;78.00
36932;BME280;22847;42.654;23.370;2023-11-21T04:24:06;94379.31;;;5.48;77.16
36932;BME280;22847;42.654;23.370;2023-11-21T04:26:32;94448.31;;;6.02;76.52
36932;BME280;22847;42.654;23.370;2023-11-21T04:28:57;94453.16;;;5.95;77.38
36932;BME280;22847;42.654;23.370;2023-11-21T04:31:23;94302.69;;;4.93;77.36
36932;BME280;22847;42.654;23.370;2023-11-21T04:33:48;94309.00;;;5.00;77.14
36932;BME280;22847;42.654;23.370;2023-11-21T04:36:14;94467.94;;;6.04;77.11
36932;BME280;22847;42.654;23.370;2023-11-21T04:38:39;94439.09;;;6.09;76.73
36932;BME280;22847;42.654;23.370;2023-11-21T04:41:06;94450.81;;;6.24;76.59
36932;BME280;22847;42.654;23.370;2023-11-21T04:43:31;94421.81;;;5.55;77.09
36932;BME280;22847;42.654;23.370;2023-11-21T04:45:57;94437.59;;;6.06;76.35
36932;BME280;22847;42.654;23.370;2023-11-21T04:48:22;94417.91;;;5.72;77.19
36932;BME280;22847;42.654;23.370;2023-11-21T04:50:48;94467.56;;;6.09;77.01
36932;BME280;22847;42.654;23.370;2023-11-21T04:53:13;94464.53;;;6.04;76.14
36932;BME280;22847;42.654;23.370;2023-11-21T04:55:40;94481.78;;;6.25;75.96
36932;BME280;22847;42.654;23.370;2023-11-21T04:58:07;94461.81;;;6.05;76.72
36932;BME280;22847;42.654;23.370;2023-11-21T05:00:33;94461.72;;;6.07;76.20
36932;BME280;22847;42.654;23.370;2023-11-21T05:02:59;94464.75;;;6.12;76.46
36932;BME280;22847;42.654;23.370;2023-11-21T05:05:26;94363.94;;;5.67;75.63
36932;BME280;22847;42.654;23.370;2023-11-21T05:07:52;94428.00;;;6.18;74.97
36932;BME280;22847;42.654;23.370;2023-11-21T05:10:19;94244.88;;;5.16;74.35
36932;BME280;22847;42.654;23.370;2023-11-21T05:12:47;94473.84;;;6.59;74.31
36932;BME280;22847;42.654;23.370;2023-11-21T05:15:15;94381.56;;;5.84;75.25
36932;BME280;22847;42.654;23.370;2023-11-21T05:17:43;94450.81;;;6.24;76.00
36932;BME280;22847;42.654;23.370;2023-11-21T05:20:13;94454.19;;;6.36;75.72
36932;BME280;22847;42.654;23.370;2023-11-21T05:22:42;94442.63;;;6.40;75.10
36932;BME280;22847;42.654;23.370;2023-11-21T05:25:08;94322.06;;;5.53;75.71
36932;BME280;22847;42.654;23.370;2023-11-21T05:27:34;94315.94;;;5.54;76.24
36932;BME280;22847;42.654;23.370;2023-11-21T05:30:04;94298.28;;;5.59;75.00
36932;BME280;22847;42.654;23.370;2023-11-21T05:32:31;94446.81;;;6.52;74.40
36932;BME280;22847;42.654;23.370;2023-11-21T05:34:56;94338.50;;;5.83;73.54
36932;BME280;22847;42.654;23.370;2023-11-21T05:37:21;94428.53;;;6.53;73.51
36932;BME280;22847;42.654;23.370;2023-11-21T05:39:48;94477.72;;;6.44;74.51
36932;BME280;22847;42.654;23.370;2023-11-21T05:42:14;94480.34;;;5.67;77.89
36932;BME280;22847;42.654;23.370;2023-11-21T05:44:42;94427.63;;;5.91;76.63
36932;BME280;22847;42.654;23.370;2023-11-21T05:47:08;94479.47;;;6.11;77.05
36932;BME280;22847;42.654;23.370;2023-11-21T05:49:35;94476.06;;;6.43;76.07
36932;BME280;22847;42.654;23.370;2023-11-21T05:52:00;94476.44;;;6.59;75.57
36932;BME280;22847;42.654;23.370;2023-11-21T05:54:26;94322.28;;;5.93;74.38
36932;BME280;22847;42.654;23.370;2023-11-21T05:56:51;94449.78;;;6.89;74.42
36932;BME280;22847;42.654;23.370;2023-11-21T05:59:17;94471.31;;;7.10;73.23
36932;BME280;22847;42.654;23.370;2023-11-21T06:01:42;94466.41;;;7.16;72.63
36932;BME280;22847;42.654;23.370;2023-11-21T06:04:08;94383.97;;;6.80;71.89
36932;BME280;22847;42.654;23.370;2023-11-21T06:06:35;94364.84;;;6.71;71.71
36932;BME280;22847;42.654;23.370;2023-11-21T06:09:00;94432.31;;;7.21;71.41
36932;BME280;22847;42.654;23.370;2023-11-21T06:11:26;94436.34;;;7.35;71.01
36932;BME280;22847;42.654;23.370;2023-11-21T06:13:51;94466.91;;;7.71;70.97
36932;BME280;22847;42.654;23.370;2023-11-21T06:16:18;94475.00;;;7.78;69.94
36932;BME280;22847;42.654;23.370;2023-11-21T06:18:45;94480.13;;;8.08;68.80
36932;BME280;22847;42.654;23.370;2023-11-21T06:21:11;94474.22;;;8.06;68.53
36932;BME280;22847;42.654;23.370;2023-11-21T06:23:37;94507.69;;;8.49;67.41
36932;BME280;22847;42.654;23.370;2023-11-21T06:26:02;94368.75;;;7.86;66.61
36932;BME280;22847;42.654;23.370;2023-11-21T06:28:29;94509.06;;;8.63;66.66
36932;BME280;22847;42.654;23.370;2023-11-21T06:30:56;94271.59;;;7.31;66.63
36932;BME280;22847;42.654;23.370;2023-11-21T06:33:23;94294.97;;;7.59;65.98
36932;BME280;22847;42.654;23.370;2023-11-21T06:35:48;94498.47;;;9.12;65.07
36932;BME280;22847;42.654;23.370;2023-11-21T06:38:15;94504.06;;;9.27;64.23
36932;BME280;22847;42.654;23.370;2023-11-21T06:40:40;94363.28;;;8.93;63.05
36932;BME280;22847;42.654;23.370;2023-11-21T06:43:06;94501.41;;;10.38;61.06
36932;BME280;22847;42.654;23.370;2023-11-21T06:45:33;94476.88;;;10.84;59.25
36932;BME280;22847;42.654;23.370;2023-11-21T06:47:59;94497.50;;;11.64;57.24
36932;BME280;22847;42.654;23.370;2023-11-21T06:50:25;94505.34;;;12.40;55.26
36932;BME280;22847;42.654;23.370;2023-11-21T06:52:50;94376.75;;;12.36;52.72
36932;BME280;22847;42.654;23.370;2023-11-21T06:55:16;94482.72;;;13.93;50.16
36932;BME280;22847;42.654;23.370;2023-11-21T06:57:41;94505.09;;;14.58;48.11
36932;BME280;22847;42.654;23.370;2023-11-21T07:00:07;94497.28;;;14.96;47.16
36932;BME280;22847;42.654;23.370;2023-11-21T07:02:36;94483.06;;;14.90;46.00
36932;BME280;22847;42.654;23.370;2023-11-21T07:05:02;94377.97;;;14.38;45.68
36932;BME280;22847;42.654;23.370;2023-11-21T07:07:28;94388.91;;;14.64;45.19
36932;BME280;22847;42.654;23.370;2023-11-21T07:09:53;94361.41;;;14.38;45.12
36932;BME280;22847;42.654;23.370;2023-11-21T07:12:19;94469.94;;;14.67;46.05
36932;BME280;22847;42.654;23.370;2023-11-21T07:14:44;94462.81;;;14.53;46.50
36932;BME280;22847;42.654;23.370;2023-11-21T07:17:13;94392.88;;;13.76;46.74
36932;BME280;22847;42.654;23.370;2023-11-21T07:19:39;94489.44;;;14.34;47.13
36932;BME280;22847;42.654;23.370;2023-11-21T07:22:04;94402.19;;;13.78;47.68
36932;BME280;22847;42.654;23.370;2023-11-21T07:24:31;94452.72;;;14.03;47.70
36932;BME280;22847;42.654;23.370;2023-11-21T07:26:57;94462.94;;;13.90;48.09
36932;BME280;22847;42.654;23.370;2023-11-21T07:29:25;94329.69;;;12.61;48.97
36932;BME280;22847;42.654;23.370;2023-11-21T07:31:52;94492.03;;;13.16;50.76
36932;BME280;22847;42.654;23.370;2023-11-21T07:34:19;94396.84;;;12.44;51.59
36932;BME280;22847;42.654;23.370;2023-11-21T07:36:45;94488.91;;;12.80;51.95
36932;BME280;22847;42.654;23.370;2023-11-21T07:39:10;94358.19;;;11.89;52.53
36932;BME280;22847;42.654;23.370;2023-11-21T07:41:36;94485.44;;;12.55;53.37
36932;BME280;22847;42.654;23.370;2023-11-21T07:44:03;94464.63;;;12.29;53.72
36932;BME280;22847;42.654;23.370;2023-11-21T07:46:28;94480.81;;;12.33;54.21
36932;BME280;22847;42.654;23.370;2023-11-21T07:48:54;94358.50;;;11.44;54.45
36932;BME280;22847;42.654;23.370;2023-11-21T07:51:20;94476.19;;;12.11;54.57
36932;BME280;22847;42.654;23.370;2023-11-21T07:53:45;94468.50;;;12.09;55.19
36932;BME280;22847;42.654;23.370;2023-11-21T07:56:11;94426.31;;;11.96;55.16
36932;BME280;22847;42.654;23.370;2023-11-21T07:58:38;94372.16;;;11.64;54.94
36932;BME280;22847;42.654;23.370;2023-11-21T08:01:04;94465.91;;;12.25;54.51
36932;BME280;22847;42.654;23.370;2023-11-21T08:03:30;94325.91;;;11.06;55.00
36932;BME280;22847;42.654;23.370;2023-11-21T08:05:56;94483.50;;;11.22;56.88
36932;BME280;22847;42.654;23.370;2023-11-21T08:08:23;94458.03;;;10.54;58.58
36932;BME280;22847;42.654;23.370;2023-11-21T08:10:49;94458.25;;;10.96;58.32
36932;BME280;22847;42.654;23.370;2023-11-21T08:13:22;94462.34;;;11.25;57.85
36932;BME280;22847;42.654;23.370;2023-11-21T08:15:48;94439.56;;;11.35;57.65
36932;BME280;22847;42.654;23.370;2023-11-21T08:18:13;94443.16;;;11.34;57.97
36932;BME280;22847;42.654;23.370;2023-11-21T08:20:40;94462.34;;;11.50;57.84
36932;BME280;22847;42.654;23.370;2023-11-21T08:23:05;94463.28;;;11.15;59.49
36932;BME280;22847;42.654;23.370;2023-11-21T08:25:31;94338.72;;;10.66;58.70
36932;BME280;22847;42.654;23.370;2023-11-21T08:27:57;94451.91;;;11.25;59.33
36932;BME280;22847;42.654;23.370;2023-11-21T08:30:23;94326.44;;;10.84;58.67
36932;BME280;22847;42.654;23.370;2023-11-21T08:32:49;94446.59;;;11.68;58.15
36932;BME280;22847;42.654;23.370;2023-11-21T08:35:17;94446.03;;;11.82;57.37
36932;BME280;22847;42.654;23.370;2023-11-21T08:37:43;94356.00;;;11.27;56.96
36932;BME280;22847;42.654;23.370;2023-11-21T08:40:08;94413.69;;;11.75;56.82
36932;BME280;22847;42.654;23.370;2023-11-21T08:42:42;94444.63;;;12.04;56.68
36932;BME280;22847;42.654;23.370;2023-11-21T08:45:08;94447.34;;;11.86;57.08
36932;BME280;22847;42.654;23.370;2023-11-21T08:47:34;94341.28;;;11.17;56.82
36932;BME280;22847;42.654;23.370;2023-11-21T08:50:02;94428.44;;;11.92;57.30
36932;BME280;22847;42.654;23.370;2023-11-21T08:52:27;94473.34;;;11.96;57.33
36932;BME280;22847;42.654;23.370;2023-11-21T08:54:53;94439.97;;;11.74;58.14
36932;BME280;22847;42.654;23.370;2023-11-21T08:57:24;94441.41;;;11.76;57.35
36932;BME280;22847;42.654;23.370;2023-11-21T08:59:49;94446.53;;;11.52;58.71
36932;BME280;22847;42.654;23.370;2023-11-21T09:02:20;94397.97;;;11.33;58.38
36932;BME280;22847;42.654;23.370;2023-11-21T09:04:47;94430.84;;;11.86;58.49
36932;BME280;22847;42.654;23.370;2023-11-21T09:07:12;94444.72;;;11.78;58.05
36932;BME280;22847;42.654;23.370;2023-11-21T09:09:38;94411.00;;;11.67;58.02
36932;BME280;22847;42.654;23.370;2023-11-21T09:12:03;94402.59;;;11.89;58.29
36932;BME280;22847;42.654;23.370;2023-11-21T09:14:29;94390.41;;;10.96;60.31
36932;BME280;22847;42.654;23.370;2023-11-21T09:16:54;94381.34;;;10.83;61.28
36932;BME280;22847;42.654;23.370;2023-11-21T09:19:21;94378.13;;;9.47;65.44
36932;BME280;22847;42.654;23.370;2023-11-21T09:21:47;94275.97;;;9.45;64.24
36932;BME280;22847;42.654;23.370;2023-11-21T09:24:12;94393.03;;;10.53;63.67
36932;BME280;22847;42.654;23.370;2023-11-21T09:26:37;94361.91;;;10.51;62.50
36932;BME280;22847;42.654;23.370;2023-11-21T09:29:03;94351.75;;;10.66;62.25
36932;BME280;22847;42.654;23.370;2023-11-21T09:31:28;94200.41;;;9.90;61.28
36932;BME280;22847;42.654;23.370;2023-11-21T09:33:54;94265.16;;;10.11;61.74
36932;BME280;22847;42.654;23.370;2023-11-21T09:36:19;94352.06;;;10.89;61.79
36932;BME280;22847;42.654;23.370;2023-11-21T09:38:48;94339.84;;;10.89;61.32
36932;BME280;22847;42.654;23.370;2023-11-21T09:41:23;94315.63;;;11.05;61.05
36932;BME280;22847;42.654;23.370;2023-11-21T09:43:54;94304.03;;;11.49;59.37
36932;BME280;22847;42.654;23.370;2023-11-21T09:46:23;94296.47;;;11.72;58.60
36932;BME280;22847;42.654;23.370;2023-11-21T09:48:51;94343.06;;;12.09;58.53
36932;BME280;22847;42.654;23.370;2023-11-21T09:51:19;94310.09;;;12.24;58.02
36932;BME280;22847;42.654;23.370;2023-11-21T09:53:47;94238.38;;;11.78;57.79
36932;BME280;22847;42.654;23.370;2023-11-21T09:56:15;94298.97;;;12.22;57.59
36932;BME280;22847;42.654;23.370;2023-11-21T09:58:45;94286.06;;;12.29;57.99
36932;BME280;22847;42.654;23.370;2023-11-21T10:01:11;94291.25;;;12.45;57.01
36932;BME280;22847;42.654;23.370;2023-11-21T10:03:38;94164.75;;;11.83;56.62
36932;BME280;22847;42.654;23.370;2023-11-21T10:06:04;94271.13;;;12.62;56.24
36932;BME280;22847;42.654;23.370;2023-11-21T10:08:32;94159.03;;;11.79;56.97
36932;BME280;22847;42.654;23.370;2023-11-21T10:10:58;94135.81;;;11.68;57.50
36932;BME280;22847;42.654;23.370;2023-11-21T10:13:26;94271.41;;;12.91;56.26
36932;BME280;22847;42.654;23.370;2023-11-21T10:15:55;94281.97;;;13.53;54.82
36932;BME280;22847;42.654;23.370;2023-11-21T10:18:23;94149.06;;;13.24;53.15
36932;BME280;22847;42.654;23.370;2023-11-21T10:20:50;94268.38;;;14.25;51.88
36932;BME280;22847;42.654;23.370;2023-11-21T10:23:19;94259.31;;;14.36;51.67
36932;BME280;22847;42.654;23.370;2023-11-21T10:25:46;94147.91;;;13.72;51.13
36932;BME280;22847;42.654;23.370;2023-11-21T10:28:11;94244.63;;;14.27;52.17
36932;BME280;22847;42.654;23.370;2023-11-21T10:30:38;94154.56;;;13.60;52.25
36932;BME280;22847;42.654;23.370;2023-11-21T10:33:07;94274.25;;;14.27;52.49
36932;BME280;22847;42.654;23.370;2023-11-21T10:35:48;94147.25;;;13.70;51.91
36932;BME280;22847;42.654;23.370;2023-11-21T10:38:16;94255.44;;;14.47;51.76
36932;BME280;22847;42.654;23.370;2023-11-21T10:40:43;94249.13;;;14.33;51.33
36932;BME280;22847;42.654;23.370;2023-11-21T10:43:10;94235.00;;;13.97;51.54
36932;BME280;22847;42.654;23.370;2023-11-21T10:45:37;94231.09;;;13.47;52.63
36932;BME280;22847;42.654;23.370;2023-11-21T10:48:06;94167.63;;;13.06;53.32
36932;BME280;22847;42.654;23.370;2023-11-21T10:50:36;93995.66;;;12.07;53.35
36932;BME280;22847;42.654;23.370;2023-11-21T10:53:03;94201.88;;;13.35;54.17
36932;BME280;22847;42.654;23.370;2023-11-21T10:55:30;94266.97;;;13.38;54.90
36932;BME280;22847;42.654;23.370;2023-11-21T10:57:59;94181.63;;;12.90;54.86
36932;BME280;22847;42.654;23.370;2023-11-21T11:00:26;94225.19;;;13.06;55.83
36932;BME280;22847;42.654;23.370;2023-11-21T11:02:53;94228.03;;;12.96;55.97
36932;BME280;22847;42.654;23.370;2023-11-21T11:05:21;94246.97;;;13.15;55.48
36932;BME280;22847;42.654;23.370;2023-11-21T11:07:51;94171.50;;;12.87;55.74
36932;BME280;22847;42.654;23.370;2023-11-21T11:10:23;94233.69;;;13.16;55.63
36932;BME280;22847;42.654;23.370;2023-11-21T11:12:51;94104.47;;;12.47;55.42
36932;BME280;22847;42.654;23.370;2023-11-21T11:15:17;94211.47;;;13.12;54.88
36932;BME280;22847;42.654;23.370;2023-11-21T11:17:45;94215.91;;;13.04;55.19
36932;BME280;22847;42.654;23.370;2023-11-21T11:20:14;94075.50;;;12.18;55.35
36932;BME280;22847;42.654;23.370;2023-11-21T11:23:13;94009.16;;;11.80;54.91
36932;BME280;22847;42.654;23.370;2023-11-21T11:28:21;94174.13;;;12.79;54.69
36932;BME280;22847;42.654;23.370;2023-11-21T11:34:19;94174.75;;;12.89;54.53
36932;BME280;22847;42.654;23.370;2023-11-21T11:37:08;94164.75;;;12.93;55.18
36932;BME280;22847;42.654;23.370;2023-11-21T11:39:41;94150.63;;;12.71;55.24
36932;BME280;22847;42.654;23.370;2023-11-21T11:42:12;94166.03;;;12.97;55.74
36932;BME280;22847;42.654;23.370;2023-11-21T11:47:26;94162.91;;;13.02;55.09
36932;BME280;22847;42.654;23.370;2023-11-21T11:50:02;94175.88;;;12.95;56.08
36932;BME280;22847;42.654;23.370;2023-11-21T11:55:05;94049.09;;;12.05;56.58
36932;BME280;22847;42.654;23.370;2023-11-21T11:57:31;94070.44;;;12.17;56.80
36932;BME280;22847;42.654;23.370;2023-11-21T12:00:08;94179.34;;;12.79;56.43
36932;BME280;22847;42.654;23.370;2023-11-21T12:02:55;94151.69;;;12.54;57.13
36932;BME280;22847;42.654;23.370;2023-11-21T12:05:25;94146.47;;;12.46;57.88
36932;BME280;22847;42.654;23.370;2023-11-21T12:07:57;94011.97;;;11.54;58.05
36932;BME280;22847;42.654;23.370;2023-11-21T12:10:25;94167.22;;;12.47;58.37
36932;BME280;22847;42.654;23.370;2023-11-21T12:12:52;94147.50;;;12.29;58.48
36932;BME280;22847;42.654;23.370;2023-11-21T12:15:19;94156.81;;;12.31;59.09
36932;BME280;22847;42.654;23.370;2023-11-21T12:17:45;94179.50;;;12.47;60.42
36932;BME280;22847;42.654;23.370;2023-11-21T12:20:12;94044.28;;;11.61;61.07
36932;BME280;22847;42.654;23.370;2023-11-21T12:22:47;94115.38;;;12.04;61.85
36932;BME280;22847;42.654;23.370;2023-11-21T12:25:24;94159.25;;;12.25;61.99
36932;BME280;22847;42.654;23.370;2023-11-21T12:27:52;94044.41;;;11.68;62.81
36932;BME280;22847;42.654;23.370;2023-11-21T12:30:20;94054.22;;;11.66;62.85
36932;BME280;22847;42.654;23.370;2023-11-21T12:32:51;94159.78;;;12.12;62.49
36932;BME280;22847;42.654;23.370;2023-11-21T12:35:18;94173.03;;;12.19;62.43
36932;BME280;22847;42.654;23.370;2023-11-21T12:37:47;94177.88;;;12.30;62.52
36932;BME280;22847;42.654;23.370;2023-11-21T12:40:14;94182.38;;;11.97;63.58
36932;BME280;22847;42.654;23.370;2023-11-21T12:42:47;94152.78;;;11.56;64.29
36932;BME280;22847;42.654;23.370;2023-11-21T12:47:49;94189.38;;;11.80;63.43
36932;BME280;22847;42.654;23.370;2023-11-21T12:50:24;94033.06;;;10.80;64.63
36932;BME280;22847;42.654;23.370;2023-11-21T12:52:57;94071.53;;;11.10;64.08
36932;BME280;22847;42.654;23.370;2023-11-21T12:55:24;94158.84;;;11.64;64.50
36932;BME280;22847;42.654;23.370;2023-11-21T12:57:52;94145.31;;;11.77;64.20
36932;BME280;22847;42.654;23.370;2023-11-21T13:00:20;94152.63;;;11.66;63.76
36932;BME280;22847;42.654;23.370;2023-11-21T13:02:56;94142.22;;;11.74;64.85
36932;BME280;22847;42.654;23.370;2023-11-21T13:05:29;94122.75;;;11.60;64.97
36932;BME280;22847;42.654;23.370;2023-11-21T13:08:00;94119.19;;;11.77;64.84
36932;BME280;22847;42.654;23.370;2023-11-21T13:10:29;94024.75;;;11.25;64.46
36932;BME280;22847;42.654;23.370;2023-11-21T13:13:00;94131.25;;;11.86;64.15
36932;BME280;22847;42.654;23.370;2023-11-21T13:15:29;94119.69;;;11.73;63.39
36932;BME280;22847;42.654;23.370;2023-11-21T13:17:56;94148.88;;;11.92;63.42
36932;BME280;22847;42.654;23.370;2023-11-21T13:20:23;94130.44;;;11.86;63.66
36932;BME280;22847;42.654;23.370;2023-11-21T13:22:57;94111.50;;;11.68;63.57
36932;BME280;22847;42.654;23.370;2023-11-21T13:25:25;94140.06;;;11.85;63.94